createdAt,value
2022-09-01T00:03:39.683Z,101281.25
2022-09-01T00:08:42.547Z,101275.94
2022-09-01T00:13:45.195Z,101279.13
2022-09-01T00:18:50.088Z,101281.34
2022-09-01T00:23:52.666Z,101275.31
2022-09-01T00:28:55.362Z,101269.66
2022-09-01T00:33:58.391Z,101272.34
2022-09-01T00:39:00.979Z,101275.06
2022-09-01T00:44:07.019Z,101272.00
2022-09-01T00:49:20.303Z,101266.88
2022-09-01T00:54:27.435Z,101274.41
2022-09-01T00:59:30.403Z,101282.53
2022-09-01T01:04:32.791Z,101279.22
2022-09-01T01:09:37.017Z,101267.56
2022-09-01T01:14:40.121Z,101281.50
2022-09-01T01:20:08.608Z,101274.78
2022-09-01T01:25:12.970Z,101272.34
2022-09-01T01:30:18.278Z,101262.72
2022-09-01T01:35:23.480Z,101256.81
2022-09-01T01:40:26.403Z,101270.59
2022-09-01T01:45:29.448Z,101262.94
2022-09-01T01:50:34.694Z,101260.97
2022-09-01T01:55:38.423Z,101255.19
2022-09-01T02:00:44.577Z,101255.56
2022-09-01T02:05:49.190Z,101256.38
2022-09-01T02:10:57.951Z,101257.88
2022-09-01T02:16:04.230Z,101254.34
2022-09-01T02:21:15.103Z,101251.22
2022-09-01T02:26:23.832Z,101252.94
2022-09-01T02:31:28.164Z,101251.72
2022-09-01T02:36:35.244Z,101249.22
2022-09-01T02:41:38.130Z,101257.56
2022-09-01T02:46:44.536Z,101247.06
2022-09-01T02:51:49.447Z,101258.00
2022-09-01T02:56:54.641Z,101248.34
2022-09-01T03:01:58.984Z,101256.06
2022-09-01T03:07:04.219Z,101251.06
2022-09-01T03:12:07.298Z,101251.06
2022-09-01T03:17:11.360Z,101258.66
2022-09-01T03:22:13.842Z,101249.41
2022-09-01T03:27:17.171Z,101248.06
2022-09-01T03:32:19.968Z,101229.31
2022-09-01T03:37:23.555Z,101253.59
2022-09-01T03:42:31.123Z,101247.66
2022-09-01T03:47:33.763Z,101243.56
2022-09-01T03:52:37.155Z,101242.47
2022-09-01T03:57:42.657Z,101248.38
2022-09-01T04:02:45.455Z,101229.44
2022-09-01T04:07:53.668Z,101237.41
2022-09-01T04:12:59.227Z,101236.13
2022-09-01T04:18:09.573Z,101229.22
2022-09-01T04:23:13.316Z,101224.50
2022-09-01T04:28:23.226Z,101232.59
2022-09-01T04:33:27.883Z,101224.09
2022-09-01T04:38:35.798Z,101224.59
2022-09-01T04:43:38.315Z,101229.09
2022-09-01T04:48:43.454Z,101224.56
2022-09-01T04:53:49.663Z,101220.91
2022-09-01T04:58:55.980Z,101220.03
2022-09-01T05:04:01.580Z,101229.63
2022-09-01T05:09:14.957Z,101225.78
2022-09-01T05:14:48.806Z,101225.31
2022-09-01T05:19:54.861Z,101226.91
2022-09-01T05:24:58.270Z,101221.28
2022-09-01T05:30:01.348Z,101224.09
2022-09-01T05:35:08.439Z,101229.59
2022-09-01T05:40:16.442Z,101232.66
2022-09-01T05:45:23.517Z,101230.19
2022-09-01T05:50:28.345Z,101230.78
2022-09-01T05:55:35.734Z,101228.53
2022-09-01T06:00:38.665Z,101234.00
2022-09-01T06:05:42.462Z,101237.94
2022-09-01T06:10:47.015Z,101234.91
2022-09-01T06:15:56.114Z,101239.91
2022-09-01T06:20:59.087Z,101246.56
2022-09-01T06:26:01.843Z,101240.84
2022-09-01T06:31:09.661Z,101235.47
2022-09-01T06:36:12.926Z,101248.16
2022-09-01T06:41:15.671Z,101251.78
2022-09-01T06:46:18.243Z,101245.44
2022-09-01T06:51:23.149Z,101256.63
2022-09-01T06:56:30.995Z,101253.34
2022-09-01T07:01:35.699Z,101249.09
2022-09-01T07:12:25.910Z,101250.78
2022-09-01T07:17:31.084Z,101245.59
2022-09-01T07:22:36.130Z,101253.00
2022-09-01T07:42:31.639Z,101248.25
2022-09-01T07:43:55.713Z,101264.00
2022-09-01T07:49:51.405Z,101262.66
2022-09-01T07:54:40.571Z,101263.72
2022-09-01T07:59:43.310Z,101267.53
2022-09-01T08:04:55.820Z,101263.59
2022-09-01T08:10:01.404Z,101257.19
2022-09-01T08:15:41.480Z,101255.50
2022-09-01T08:20:31.484Z,101254.09
2022-09-01T08:26:00.133Z,101262.25
2022-09-01T08:31:11.429Z,101247.00
2022-09-01T08:36:20.232Z,101255.09
2022-09-01T08:41:37.453Z,101267.88
2022-09-01T08:46:42.507Z,101279.00
2022-09-01T08:52:12.694Z,101279.63
2022-09-01T08:57:21.995Z,101271.25
2022-09-01T09:03:07.661Z,101278.59
2022-09-01T09:08:10.936Z,101275.72
2022-09-01T09:13:25.007Z,101260.38
2022-09-01T09:18:55.790Z,101246.44
2022-09-01T09:24:24.593Z,101258.66
2022-09-01T09:29:29.983Z,101254.63
2022-09-01T09:34:36.843Z,101262.31
2022-09-01T09:39:40.209Z,101259.53
2022-09-01T09:44:51.265Z,101275.53
2022-09-01T09:50:14.061Z,101262.88
2022-09-01T09:55:23.649Z,101262.44
2022-09-01T10:00:29.812Z,101264.47
2022-09-01T10:05:58.217Z,101253.13
2022-09-01T10:11:00.872Z,101265.44
2022-09-01T10:16:11.340Z,101261.09
2022-09-01T10:21:24.194Z,101273.75
2022-09-01T10:26:36.365Z,101266.28
2022-09-01T10:31:41.091Z,101269.03
2022-09-01T10:36:47.044Z,101276.03
2022-09-01T10:41:59.641Z,101266.09
2022-09-01T10:47:27.168Z,101257.06
2022-09-01T10:52:43.440Z,101260.84
2022-09-01T10:58:08.546Z,101254.84
2022-09-01T11:03:30.598Z,101254.94
2022-09-01T11:08:34.124Z,101255.31
2022-09-01T11:13:49.029Z,101240.59
2022-09-01T11:18:52.587Z,101239.09
2022-09-01T11:24:39.150Z,101241.75
2022-09-01T11:30:01.311Z,101240.59
2022-09-01T11:35:06.886Z,101256.56
2022-09-01T11:40:10.568Z,101263.03
2022-09-01T11:45:23.658Z,101264.69
2022-09-01T11:50:34.755Z,101258.56
2022-09-01T11:55:42.767Z,101263.97
2022-09-01T12:00:45.876Z,101264.94
2022-09-01T12:05:51.165Z,101273.25
2022-09-01T12:11:04.118Z,101275.13
2022-09-01T12:16:24.620Z,101271.69
2022-09-01T12:21:27.014Z,101264.97
2022-09-01T12:26:30.598Z,101267.75
2022-09-01T12:31:33.172Z,101256.84
2022-09-01T12:36:37.125Z,101253.59
2022-09-01T12:41:40.729Z,101254.97
2022-09-01T12:46:46.615Z,101243.69
2022-09-01T12:51:49.318Z,101242.03
2022-09-01T12:56:51.781Z,101239.16
2022-09-01T13:01:54.413Z,101242.22
2022-09-01T13:07:02.026Z,101245.63
2022-09-01T13:12:33.927Z,101256.09
2022-09-01T13:17:38.385Z,101267.09
2022-09-01T13:22:42.701Z,101263.09
2022-09-01T13:27:47.572Z,101264.84
2022-09-01T13:38:16.311Z,101277.59
2022-09-01T13:43:22.311Z,101268.16
2022-09-01T13:49:02.136Z,101270.97
2022-09-01T13:53:48.171Z,101262.78
2022-09-01T13:58:50.565Z,101255.16
2022-09-01T14:03:55.107Z,101268.78
2022-09-01T14:09:00.881Z,101269.31
2022-09-01T14:14:03.635Z,101263.63
2022-09-01T14:19:06.714Z,101264.09
2022-09-01T14:24:09.275Z,101255.19
2022-09-01T14:29:12.020Z,101252.66
2022-09-01T14:34:16.421Z,101252.28
2022-09-01T14:39:18.826Z,101238.78
2022-09-01T14:44:21.343Z,101231.31
2022-09-01T14:49:23.898Z,101238.03
2022-09-01T14:54:26.341Z,101237.41
2022-09-01T14:59:28.944Z,101231.75
2022-09-01T15:04:32.282Z,101233.41
2022-09-01T15:09:35.733Z,101244.28
2022-09-01T15:14:38.500Z,101243.00
2022-09-01T15:19:40.921Z,101241.47
2022-09-01T15:24:44.646Z,101245.06
2022-09-01T15:29:49.074Z,101247.06
2022-09-01T15:34:51.624Z,101250.13
2022-09-01T15:39:54.061Z,101239.53
2022-09-01T15:44:56.439Z,101241.16
2022-09-01T15:49:59.019Z,101242.81
2022-09-01T15:55:01.813Z,101245.03
2022-09-01T16:00:05.714Z,101254.13
2022-09-01T16:05:14.651Z,101240.91
2022-09-01T16:10:17.095Z,101247.97
2022-09-01T16:15:22.378Z,101244.59
2022-09-01T16:20:28.630Z,101241.66
2022-09-01T16:25:34.744Z,101244.59
2022-09-01T16:30:37.735Z,101241.13
2022-09-01T16:35:55.969Z,101239.50
2022-09-01T16:41:24.406Z,101235.31
2022-09-01T16:46:35.676Z,101242.56
2022-09-01T16:51:43.243Z,101234.66
2022-09-01T16:56:51.568Z,101240.06
2022-09-01T17:02:25.841Z,101244.59
2022-09-01T17:07:40.208Z,101248.78
2022-09-01T17:12:50.657Z,101245.84
2022-09-01T17:18:06.306Z,101260.50
2022-09-01T17:23:14.024Z,101260.56
2022-09-01T17:28:31.525Z,101264.94
2022-09-01T17:34:02.669Z,101271.22
2022-09-01T17:39:16.814Z,101269.56
2022-09-01T17:44:37.831Z,101289.22
2022-09-01T17:49:52.395Z,101295.06
2022-09-01T17:55:04.192Z,101292.66
2022-09-01T18:00:08.684Z,101305.22
2022-09-01T18:05:24.320Z,101297.81
2022-09-01T18:10:35.197Z,101313.72
2022-09-01T18:15:52.481Z,101307.97
2022-09-01T18:20:57.374Z,101318.13
2022-09-01T18:26:09.306Z,101320.88
2022-09-01T18:31:17.710Z,101316.47
2022-09-01T18:36:38.971Z,101318.38
2022-09-01T18:41:56.032Z,101320.03
2022-09-01T18:47:05.310Z,101324.91
2022-09-01T18:52:31.206Z,101325.41
2022-09-01T18:57:40.170Z,101332.25
2022-09-01T19:02:54.212Z,101343.94
2022-09-01T19:07:59.389Z,101338.59
2022-09-01T19:13:12.165Z,101339.09
2022-09-01T19:18:32.040Z,101339.16
2022-09-01T19:23:56.911Z,101338.41
2022-09-01T19:29:02.308Z,101345.97
2022-09-01T19:34:09.799Z,101345.03
2022-09-01T19:39:14.459Z,101349.22
2022-09-01T19:44:39.709Z,101349.78
2022-09-01T19:49:55.939Z,101339.50
2022-09-01T19:55:03.056Z,101351.50
2022-09-01T20:00:13.804Z,101347.56
2022-09-01T20:05:46.461Z,101358.84
2022-09-01T20:11:04.409Z,101364.31
2022-09-01T20:16:40.248Z,101358.78
2022-09-01T20:21:45.374Z,101356.59
2022-09-01T20:26:47.778Z,101361.53
2022-09-01T20:31:53.254Z,101360.47
2022-09-01T20:37:02.058Z,101369.84
2022-09-01T20:42:13.287Z,101371.75
2022-09-01T20:47:15.699Z,101373.47
2022-09-01T20:52:39.217Z,101375.59
2022-09-01T20:58:11.902Z,101377.03
2022-09-01T21:03:33.679Z,101380.72
2022-09-01T21:08:45.518Z,101387.75
2022-09-01T21:14:29.564Z,101391.53
2022-09-01T21:19:58.572Z,101382.22
2022-09-01T21:25:00.918Z,101376.59
2022-09-01T21:30:12.413Z,101381.69
2022-09-01T21:35:18.070Z,101381.16
2022-09-01T21:40:22.535Z,101382.91
2022-09-01T21:45:25.330Z,101389.38
2022-09-01T21:50:28.001Z,101385.59
2022-09-01T21:55:31.545Z,101380.31
2022-09-01T22:00:36.493Z,101381.25
2022-09-01T22:05:44.963Z,101379.94
2022-09-01T22:10:50.105Z,101381.50
2022-09-01T22:15:54.037Z,101375.06
2022-09-01T22:21:07.188Z,101371.53
2022-09-01T22:26:15.419Z,101370.63
2022-09-01T22:31:20.554Z,101367.56
2022-09-01T22:36:31.607Z,101377.53
2022-09-01T22:41:34.741Z,101373.75
2022-09-01T22:46:38.612Z,101367.44
2022-09-01T22:51:42.592Z,101371.84
2022-09-01T22:56:45.348Z,101375.78
2022-09-01T23:01:51.616Z,101368.50
2022-09-01T23:06:54.495Z,101369.78
2022-09-01T23:11:56.982Z,101375.84
2022-09-01T23:16:59.512Z,101362.53
2022-09-01T23:22:03.292Z,101367.13
2022-09-01T23:27:05.750Z,101377.06
2022-09-01T23:32:08.253Z,101349.91
2022-09-01T23:37:10.851Z,101367.72
2022-09-01T23:42:13.270Z,101364.16
2022-09-01T23:47:16.152Z,101368.63
2022-09-01T23:52:18.506Z,101359.31
2022-09-01T23:57:21.275Z,101368.63
